createdAt,value
2018-11-05T00:00:34.799Z," 8.19"
2018-11-05T00:05:30.066Z," 8.12"
2018-11-05T00:10:26.676Z," 8.09"
2018-11-05T00:15:22.731Z," 8.01"
2018-11-05T00:20:18.625Z," 8.13"
2018-11-05T00:25:14.187Z," 8.19"
2018-11-05T00:30:09.905Z," 8.12"
2018-11-05T00:35:06.770Z," 8.10"
2018-11-05T00:40:02.007Z," 8.23"
2018-11-05T00:44:58.071Z," 8.16"
2018-11-05T00:49:53.804Z," 8.09"
2018-11-05T00:54:49.476Z," 8.15"
2018-11-05T00:59:45.412Z," 8.13"
2018-11-05T01:04:41.132Z," 8.15"
2018-11-05T01:09:37.819Z," 8.15"
2018-11-05T01:14:33.399Z," 8.08"
2018-11-05T01:19:30.126Z," 8.10"
2018-11-05T01:24:25.817Z," 8.26"
2018-11-05T01:29:21.630Z," 8.20"
2018-11-05T01:34:17.305Z," 8.10"
2018-11-05T01:39:12.730Z," 8.13"
2018-11-05T01:44:08.580Z," 8.15"
2018-11-05T01:49:05.516Z," 8.12"
2018-11-05T01:54:00.451Z," 8.13"
2018-11-05T01:58:55.976Z," 8.10"
2018-11-05T02:03:51.509Z," 8.03"
2018-11-05T02:08:47.222Z," 7.98"
2018-11-05T02:13:43.535Z," 8.05"
2018-11-05T02:18:39.220Z," 7.95"
2018-11-05T02:23:34.858Z," 7.87"
2018-11-05T02:28:31.023Z," 7.93"
2018-11-05T02:33:26.650Z," 7.88"
2018-11-05T02:38:22.377Z," 7.83"
2018-11-05T02:43:17.871Z," 7.82"
2018-11-05T02:48:13.589Z," 7.85"
2018-11-05T02:53:09.346Z," 7.79"
2018-11-05T02:58:04.933Z," 7.76"
2018-11-05T03:03:00.781Z," 7.73"
2018-11-05T03:07:56.354Z," 7.67"
2018-11-05T03:12:52.528Z," 7.70"
2018-11-05T03:17:48.193Z," 7.67"
2018-11-05T03:22:44.933Z," 7.61"
2018-11-05T03:27:40.306Z," 7.47"
2018-11-05T03:32:36.118Z," 7.47"
2018-11-05T03:37:31.885Z," 7.43"
2018-11-05T03:42:28.223Z," 7.32"
2018-11-05T03:47:24.737Z," 7.15"
2018-11-05T03:52:20.339Z," 7.17"
2018-11-05T03:57:15.956Z," 7.15"
2018-11-05T04:02:13.236Z," 7.24"
2018-11-05T04:07:09.708Z," 7.24"
2018-11-05T04:12:05.116Z," 7.32"
2018-11-05T04:17:01.039Z," 7.17"
2018-11-05T04:21:56.771Z," 7.29"
2018-11-05T04:26:52.899Z," 7.42"
2018-11-05T04:31:49.347Z," 7.35"
2018-11-05T04:36:45.002Z," 7.29"
2018-11-05T04:41:40.727Z," 7.25"
2018-11-05T04:46:36.361Z," 7.24"
2018-11-05T04:51:32.804Z," 7.31"
2018-11-05T04:56:28.557Z," 7.38"
2018-11-05T05:01:24.040Z," 7.32"
2018-11-05T05:06:19.621Z," 7.43"
2018-11-05T05:11:16.268Z," 7.53"
2018-11-05T05:16:11.739Z," 7.43"
2018-11-05T05:21:08.397Z," 7.40"
2018-11-05T05:26:03.697Z," 7.25"
2018-11-05T05:30:58.985Z," 7.20"
2018-11-05T05:35:55.579Z," 7.21"
2018-11-05T05:40:51.643Z," 7.13"
2018-11-05T05:45:46.979Z," 7.15"
2018-11-05T05:50:42.869Z," 7.13"
2018-11-05T05:55:38.646Z," 7.31"
2018-11-05T06:00:35.068Z," 7.33"
2018-11-05T06:05:30.766Z," 7.33"
2018-11-05T06:10:26.868Z," 7.53"
2018-11-05T06:15:22.639Z," 7.58"
2018-11-05T06:20:18.309Z," 7.73"
2018-11-05T06:25:14.189Z," 7.91"
2018-11-05T06:30:10.000Z," 7.98"
2018-11-05T06:35:06.877Z," 8.13"
2018-11-05T06:40:03.776Z," 8.26"
2018-11-05T06:45:00.307Z," 8.31"
2018-11-05T06:49:55.980Z," 8.45"
2018-11-05T06:54:52.419Z," 8.55"
2018-11-05T06:59:48.036Z," 8.71"
2018-11-05T07:04:44.593Z," 8.67"
2018-11-05T07:09:41.004Z," 8.69"
2018-11-05T07:14:37.507Z," 8.81"
2018-11-05T07:19:33.786Z," 8.87"
2018-11-05T07:24:29.536Z," 8.95"
2018-11-05T07:29:25.612Z," 8.94"
2018-11-05T07:34:21.434Z," 9.03"
2018-11-05T07:39:18.131Z," 9.02"
2018-11-05T07:44:13.912Z," 9.13"
2018-11-05T07:49:10.587Z," 9.25"
2018-11-05T07:54:06.234Z," 9.26"
2018-11-05T07:59:02.030Z," 9.39"
2018-11-05T08:03:58.065Z," 9.54"
2018-11-05T08:08:53.542Z," 9.56"
2018-11-05T08:13:49.459Z," 9.48"
2018-11-05T08:18:46.165Z," 9.61"
2018-11-05T08:23:42.010Z," 9.73"
2018-11-05T08:28:37.993Z," 9.76"
2018-11-05T08:33:33.925Z," 9.91"
2018-11-05T08:38:29.979Z,10.01
2018-11-05T08:43:25.828Z,10.12
2018-11-05T08:48:21.985Z,10.30
2018-11-05T08:53:18.005Z,10.38
2018-11-05T08:58:14.005Z,10.56
2018-11-05T09:03:09.775Z,10.59
2018-11-05T09:08:05.370Z,10.74
2018-11-05T09:13:01.227Z,10.81
2018-11-05T09:17:57.482Z,10.78
2018-11-05T09:22:53.198Z,10.89
2018-11-05T09:27:49.357Z,11.00
2018-11-05T09:32:45.191Z,11.05
2018-11-05T09:37:41.084Z,10.93
2018-11-05T09:42:37.045Z,10.94
2018-11-05T09:47:32.984Z,11.07
2018-11-05T09:52:28.668Z,10.99
2018-11-05T09:57:24.343Z,10.94
2018-11-05T10:02:21.364Z,11.02
2018-11-05T10:07:18.138Z,11.18
2018-11-05T10:12:14.828Z,11.35
2018-11-05T10:17:10.265Z,11.18
2018-11-05T10:22:06.057Z,11.32
2018-11-05T10:27:02.674Z,11.48
2018-11-05T10:31:59.409Z,11.47
2018-11-05T10:36:55.888Z,11.44
2018-11-05T10:41:51.659Z,11.41
2018-11-05T10:46:47.522Z,11.54
2018-11-05T10:51:44.124Z,11.63
2018-11-05T10:56:39.752Z,11.63
2018-11-05T11:01:35.559Z,11.80
2018-11-05T11:06:31.398Z,11.73
2018-11-05T11:11:27.235Z,11.80
2018-11-05T11:16:23.256Z,11.84
2018-11-05T11:21:19.023Z,11.94
2018-11-05T11:26:15.438Z,12.00
2018-11-05T11:31:11.310Z,12.09
2018-11-05T11:36:07.307Z,12.29
2018-11-05T11:41:04.249Z,12.36
2018-11-05T11:45:59.971Z,12.31
2018-11-05T11:50:55.636Z,12.28
2018-11-05T11:55:51.694Z,12.35
2018-11-05T12:00:47.631Z,12.31
2018-11-05T12:05:43.340Z,12.39
2018-11-05T12:10:38.800Z,12.36
2018-11-05T12:15:35.871Z,12.32
2018-11-05T12:20:31.805Z,12.36
2018-11-05T12:25:27.570Z,12.54
2018-11-05T12:30:23.584Z,12.58
2018-11-05T12:35:19.810Z,12.76
2018-11-05T12:40:16.524Z,12.80
2018-11-05T12:45:13.827Z,12.86
2018-11-05T12:50:11.062Z,12.79
2018-11-05T12:55:07.684Z,12.72
2018-11-05T13:00:04.182Z,12.79
2018-11-05T13:04:59.575Z,12.65
2018-11-05T13:09:56.856Z,12.75
2018-11-05T13:14:52.486Z,12.82
2018-11-05T13:19:48.590Z,12.79
2018-11-05T13:24:44.451Z,12.78
2018-11-05T13:29:40.618Z,12.75
2018-11-05T13:34:36.509Z,12.82
2018-11-05T13:39:32.258Z,12.83
2018-11-05T13:44:29.204Z,12.79
2018-11-05T13:49:24.810Z,12.75
2018-11-05T13:54:20.894Z,12.72
2018-11-05T13:59:16.540Z,12.54
2018-11-05T14:04:12.204Z,12.60
2018-11-05T14:09:07.949Z,12.65
2018-11-05T14:14:04.298Z,12.70
2018-11-05T14:19:00.949Z,12.67
2018-11-05T14:23:56.789Z,12.55
2018-11-05T14:28:53.770Z,12.68
2018-11-05T14:33:49.442Z,12.54
2018-11-05T14:38:45.412Z,12.50
2018-11-05T14:43:42.310Z,12.53
2018-11-05T14:48:37.906Z,12.54
2018-11-05T14:53:33.863Z,12.50
2018-11-05T14:58:29.607Z,12.49
2018-11-05T15:03:25.153Z,12.40
2018-11-05T15:08:22.383Z,12.39
2018-11-05T15:13:17.558Z,12.37
2018-11-05T15:18:13.333Z,12.25
2018-11-05T15:23:09.227Z,12.28
2018-11-05T15:28:05.048Z,12.31
2018-11-05T15:33:00.719Z,12.22
2018-11-05T15:37:56.488Z,12.09
2018-11-05T15:42:52.592Z,12.06
2018-11-05T15:47:49.130Z,11.94
2018-11-05T15:52:45.141Z,11.86
2018-11-05T15:57:40.989Z,11.72
2018-11-05T16:02:37.530Z,11.66
2018-11-05T16:07:34.322Z,11.59
2018-11-05T16:12:29.696Z,11.54
2018-11-05T16:17:26.512Z,11.60
2018-11-05T16:22:21.720Z,11.55
2018-11-05T16:27:17.595Z,11.43
2018-11-05T16:32:14.464Z,11.40
2018-11-05T16:37:09.993Z,11.37
2018-11-05T16:42:05.295Z,11.25
2018-11-05T16:47:01.913Z,11.18
2018-11-05T16:51:57.208Z,11.19
2018-11-05T16:56:54.308Z,11.10
2018-11-05T17:01:50.490Z,11.12
2018-11-05T17:06:46.519Z,11.11
2018-11-05T17:11:42.215Z,11.15
2018-11-05T17:16:38.085Z,10.99
2018-11-05T17:21:33.836Z,10.97
2018-11-05T17:26:29.736Z,11.05
2018-11-05T17:31:25.520Z,10.94
2018-11-05T17:36:21.236Z,10.82
2018-11-05T17:41:18.039Z,10.93
2018-11-05T17:46:14.244Z,10.89
2018-11-05T17:51:09.727Z,10.82
2018-11-05T17:56:06.305Z,10.90
2018-11-05T18:01:01.643Z,10.82
2018-11-05T18:05:57.637Z,10.84
2018-11-05T18:10:53.420Z,10.86
2018-11-05T18:15:49.195Z,10.76
2018-11-05T18:20:45.744Z,10.67
2018-11-05T18:25:42.269Z,10.60
2018-11-05T18:30:38.800Z,10.63
2018-11-05T18:35:34.236Z,10.67
2018-11-05T18:40:30.241Z,10.64
2018-11-05T18:45:25.993Z,10.59
2018-11-05T18:50:21.869Z,10.46
2018-11-05T18:55:17.874Z,10.34
2018-11-05T19:00:14.393Z,10.37
2018-11-05T19:05:10.660Z,10.20
2018-11-05T19:10:06.395Z,10.23
2018-11-05T19:15:02.146Z,10.17
2018-11-05T19:19:58.832Z,10.13
2018-11-05T19:24:54.135Z,10.09
2018-11-05T19:29:49.804Z,10.01
2018-11-05T19:34:45.801Z," 9.97"
2018-11-05T19:39:41.536Z," 9.92"
2018-11-05T19:44:37.714Z," 9.98"
2018-11-05T19:49:33.591Z," 9.98"
2018-11-05T19:54:29.139Z," 9.91"
2018-11-05T19:59:25.492Z," 9.99"
2018-11-05T20:04:21.260Z," 9.95"
2018-11-05T20:09:16.958Z,10.07
2018-11-05T20:14:13.911Z,10.04
2018-11-05T20:19:09.092Z,10.05
2018-11-05T20:24:05.981Z," 9.99"
2018-11-05T20:29:01.552Z,10.04
2018-11-05T20:33:57.305Z," 9.91"
2018-11-05T20:38:53.353Z," 9.91"
2018-11-05T20:43:49.162Z," 9.79"
2018-11-05T20:48:45.127Z," 9.84"
2018-11-05T20:53:41.025Z," 9.84"
2018-11-05T20:58:36.753Z," 9.80"
2018-11-05T21:03:32.436Z," 9.77"
2018-11-05T21:08:28.589Z," 9.77"
2018-11-05T21:13:25.231Z," 9.80"
2018-11-05T21:18:22.235Z," 9.77"
2018-11-05T21:23:17.344Z," 9.92"
2018-11-05T21:28:14.061Z," 9.91"
2018-11-05T21:33:09.776Z," 9.92"
2018-11-05T21:38:05.605Z," 9.79"
2018-11-05T21:43:01.346Z," 9.77"
2018-11-05T21:47:57.453Z," 9.92"
2018-11-05T21:52:53.108Z," 9.98"
2018-11-05T21:57:48.984Z," 9.97"
2018-11-05T22:02:44.686Z,10.01
2018-11-05T22:07:40.991Z," 9.91"
2018-11-05T22:12:36.889Z," 9.77"
2018-11-05T22:17:33.595Z," 9.80"
2018-11-05T22:22:29.167Z," 9.79"
2018-11-05T22:27:25.593Z," 9.77"
2018-11-05T22:32:21.645Z," 9.74"
2018-11-05T22:37:17.591Z," 9.54"
2018-11-05T22:42:13.306Z," 9.55"
2018-11-05T22:47:09.549Z," 9.54"
2018-11-05T22:52:05.309Z," 9.51"
2018-11-05T22:57:02.282Z," 9.41"
2018-11-05T23:01:58.739Z," 9.43"
2018-11-05T23:06:55.526Z," 9.48"
2018-11-05T23:11:52.188Z," 9.48"
2018-11-05T23:16:47.779Z," 9.56"
2018-11-05T23:21:43.482Z," 9.43"
2018-11-05T23:26:39.643Z," 9.31"
2018-11-05T23:31:35.480Z," 9.23"
2018-11-05T23:36:31.105Z," 9.16"
2018-11-05T23:41:27.718Z," 9.13"
2018-11-05T23:46:22.957Z," 9.08"
2018-11-05T23:51:19.606Z," 9.08"
2018-11-05T23:56:15.973Z," 9.08"
